Phillips, Wisconsin
Current Conditions -  °F | °C
As of 10:15 AM on Friday 24 Oct 2014 (Local Time) from KPBH Reporting Station
Haze Haze  
Wind Chill:   Ceiling: 200
Heat Index:   Visibility: 5mi
Dew Point:   Wind: 7mph
Humidity: 100%   Direction: 200°SSW
Pressure: 29.96"   Gusts: NA
Location:  45.69°N, 90.41°W
Report Text: KPBH 241515Z AUTO 20006KT 5SM BR OVC002 07/07 A2996 RMK AO2 T00710071
Loading
Personal Weather Stations






























Interactive Weather Map New forecast layout! Learn more

10-Day Weather Forecast

Advertisements
Track Severe Weather on mobile